createdAt,value
2023-03-22T00:01:02.535Z,100977.26
2023-03-22T00:05:36.214Z,100977.75
2023-03-22T00:10:08.336Z,100967.30
2023-03-22T00:14:42.011Z,100959.17
2023-03-22T00:36:33.473Z,100946.09
2023-03-22T00:40:54.992Z,100940.16
2023-03-22T00:45:25.396Z,100932.60
2023-03-22T00:49:58.005Z,100938.15
2023-03-22T01:11:55.995Z,100908.75
2023-03-22T01:16:04.318Z,100917.17
2023-03-22T01:42:09.394Z,100904.32
2023-03-22T01:46:42.627Z,100906.38
2023-03-22T01:50:58.433Z,100901.85
2023-03-22T01:55:41.219Z,100895.54
2023-03-22T02:22:30.900Z,100860.36
2023-03-22T02:27:13.775Z,100864.11
2023-03-22T02:31:43.038Z,100857.89
2023-03-22T02:36:08.737Z,100856.52
2023-03-22T02:40:46.957Z,100852.52
2023-03-22T03:11:55.210Z,100828.86
2023-03-22T03:16:19.959Z,100832.48
2023-03-22T03:21:13.490Z,100826.10
2023-03-22T03:43:59.891Z,100834.85
2023-03-22T03:48:31.287Z,100839.29
2023-03-22T04:20:54.023Z,100834.29
2023-03-22T04:25:22.893Z,100831.45
2023-03-22T04:29:51.810Z,100837.06
2023-03-22T04:39:04.729Z,100832.20
2023-03-22T05:07:16.050Z,100819.99
2023-03-22T05:11:44.891Z,100815.15
2023-03-22T05:16:19.782Z,100818.25
2023-03-22T05:41:54.007Z,100798.14
2023-03-22T05:46:16.151Z,100793.18
2023-03-22T05:50:48.798Z,100794.42
2023-03-22T06:16:31.292Z,100793.88
2023-03-22T06:20:53.070Z,100795.20
2023-03-22T06:24:43.033Z,100797.25
2023-03-22T06:29:01.387Z,100790.30
2023-03-22T06:33:30.105Z,100789.46
2023-03-22T06:38:00.646Z,100783.23
2023-03-22T06:42:20.424Z,100784.41
2023-03-22T06:46:43.023Z,100782.52
2023-03-22T07:15:46.904Z,100788.13
2023-03-22T07:20:14.909Z,100790.23
2023-03-22T07:24:55.671Z,100784.77
2023-03-22T07:29:14.946Z,100782.44
2023-03-22T07:33:44.089Z,100778.52
2023-03-22T07:38:12.840Z,100777.33
2023-03-22T07:42:34.367Z,100771.00
2023-03-22T08:03:54.177Z,100767.48
2023-03-22T08:08:23.391Z,100764.34
2023-03-22T08:11:38.106Z,100756.98
2023-03-22T08:15:40.642Z,100752.96
2023-03-22T08:19:46.594Z,100748.40
2023-03-22T08:23:16.655Z,100745.63
2023-03-22T08:27:21.294Z,100743.30
2023-03-22T08:30:48.719Z,100741.70
2023-03-22T08:34:28.301Z,100734.15
2023-03-22T08:37:36.616Z,100735.10
2023-03-22T08:41:30.186Z,100736.69
2023-03-22T08:44:34.641Z,100741.10
2023-03-22T08:47:32.070Z,100736.91
2023-03-22T08:50:37.988Z,100740.94
2023-03-22T08:53:59.807Z,100734.91
2023-03-22T08:58:31.947Z,100726.20
2023-03-22T09:02:46.940Z,100724.86
2023-03-22T09:25:02.483Z,100712.14
2023-03-22T09:29:25.074Z,100708.20
2023-03-22T09:33:54.000Z,100711.41
2023-03-22T09:38:23.104Z,100708.82
2023-03-22T09:42:48.662Z,100705.08
2023-03-22T12:30:07.854Z,100568.63
2023-03-22T12:34:25.325Z,100569.09
2023-03-22T12:38:56.964Z,100563.70
2023-03-22T12:43:29.172Z,100559.74
2023-03-22T12:47:50.616Z,100558.45
2023-03-22T12:52:02.086Z,100550.97
2023-03-22T12:56:20.866Z,100545.68
2023-03-22T13:27:17.782Z,100514.90
2023-03-22T13:31:25.238Z,100513.63
2023-03-22T13:35:16.990Z,100513.59
2023-03-22T13:39:35.032Z,100503.12
